Time;durP1;ratioP1;P1;durP2;ratioP2;P2;SDS_P1;SDS_P2;PMS_P1;PMS_P2;Temp;Humidity;BMP_temperature;BMP_pressure;BME280_temperature;BME280_humidity;BME280_pressure;Samples;Min_cycle;Max_cycle;Signal;HPM_P1;HPM_P2
2022/10/12 05:26:11;;;;;;;;;;;;;;;18.01;78.00;97404.91;4216745;27;10340;-64
2022/10/12 05:28:14;;;;;;;;;;;;;;;18.31;77.35;97402.22;4213030;28;5816;-65
2022/10/12 05:30:17;;;;;;;;;;;;;;;18.53;76.35;97405.19;4217415;28;7711;-65
2022/10/12 05:32:20;;;;;;;;;;;;;;;18.71;76.15;97398.19;4216760;28;5741;-64
2022/10/12 05:34:22;;;;;;;;;;;;;;;18.83;75.93;97397.16;4206613;28;5739;-65
2022/10/12 05:36:25;;;;;;;;;;;;;;;18.94;75.50;97403.56;4215665;28;5888;-65
2022/10/12 05:38:28;;;;;;;;;;;;;;;19.05;74.83;97404.63;4217614;28;6551;-65
2022/10/12 05:40:30;;;;;;;;;;;;;;;19.15;74.75;97399.53;4227622;28;5783;-65
2022/10/12 05:42:35;;;;;;;;;;;;;;;19.22;74.65;97405.56;4218289;28;5810;-65
2022/10/12 05:44:38;;;;;;;;;;;;;;;19.28;74.37;97409.19;4215245;28;5940;-65
2022/10/12 05:46:41;;;;;;;;;;;;;;;19.31;74.10;97412.22;4215390;28;5730;-64
2022/10/12 05:48:43;;;;;;;;;;;;;;;19.35;73.91;97413.34;4210481;28;5734;-66
2022/10/12 05:50:46;;;;;;;;;;;;;;;19.39;73.65;97413.72;4208392;28;5789;-65
2022/10/12 05:52:49;;;;;;;;;;;;;;;19.43;73.76;97422.94;4214142;28;5761;-65
2022/10/12 05:54:52;;;;;;;;;;;;;;;19.44;73.36;97409.28;4211909;28;5790;-65
2022/10/12 05:56:54;;;;;;;;;;;;;;;19.47;73.31;97413.34;4214150;28;5749;-65
2022/10/12 05:58:59;;;;;;;;;;;;;;;19.48;73.35;97409.66;4214288;28;5745;-65
2022/10/12 06:01:06;;;;;;;;;;;;;;;19.47;72.89;97405.31;4212024;28;5738;-65
2022/10/12 06:03:08;;;;;;;;;;;;;;;19.48;73.04;97405.09;4218337;28;6059;-65
2022/10/12 06:05:11;;;;;;;;;;;;;;;19.51;72.69;97413.72;4216033;28;7711;-65
2022/10/12 06:07:14;;;;;;;;;;;;;;;19.52;72.38;97410.81;4224204;28;5736;-65
2022/10/12 06:09:17;;;;;;;;;;;;;;;19.55;72.14;97423.75;4224268;28;5799;-65
2022/10/12 06:11:20;;;;;;;;;;;;;;;19.54;72.28;97414.06;4216064;28;5105;-65
2022/10/12 06:13:24;;;;;;;;;;;;;;;19.57;72.11;97410.94;4223194;28;5927;-65
2022/10/12 06:15:28;;;;;;;;;;;;;;;19.58;71.77;97420.59;4217268;28;5924;-65
2022/10/12 06:17:31;;;;;;;;;;;;;;;19.58;71.73;97414.44;4208325;28;5723;-66
2022/10/12 06:19:34;;;;;;;;;;;;;;;19.58;71.74;97415.25;4213534;28;5734;-66
2022/10/12 06:21:36;;;;;;;;;;;;;;;19.59;71.24;97422.22;4211093;28;6491;-66
2022/10/12 06:23:39;;;;;;;;;;;;;;;19.60;71.49;97421.22;4213802;28;5730;-66
2022/10/12 06:25:42;;;;;;;;;;;;;;;19.62;71.24;97415.59;4210728;28;5741;-66
2022/10/12 06:27:45;;;;;;;;;;;;;;;19.62;71.18;97424.47;4200270;28;5862;-66
2022/10/12 06:29:48;;;;;;;;;;;;;;;19.63;70.70;97422.59;4201906;28;5812;-64
2022/10/12 06:31:53;;;;;;;;;;;;;;;19.63;71.03;97428.78;4202410;28;5857;-65
2022/10/12 06:33:56;;;;;;;;;;;;;;;19.64;70.87;97425.03;4201030;28;5722;-65
2022/10/12 06:35:58;;;;;;;;;;;;;;;19.64;70.76;97425.03;4202222;28;5860;-65
2022/10/12 06:38:01;;;;;;;;;;;;;;;19.63;70.54;97422.59;4202373;28;5727;-65
2022/10/12 06:40:05;;;;;;;;;;;;;;;19.64;70.70;97427.72;4203028;28;5838;-65
2022/10/12 06:42:10;;;;;;;;;;;;;;;19.64;70.13;97429.59;4200272;28;5742;-65
2022/10/12 06:44:12;;;;;;;;;;;;;;;19.63;70.36;97422.59;4197754;28;5825;-65
2022/10/12 06:46:16;;;;;;;;;;;;;;;19.64;70.40;97430.41;4190769;28;5753;-64
2022/10/12 06:48:20;;;;;;;;;;;;;;;19.66;70.33;97432.84;4198228;28;6415;-65
2022/10/12 06:50:25;;;;;;;;;;;;;;;19.64;70.21;97427.72;4196650;28;5922;-65
2022/10/12 06:52:28;;;;;;;;;;;;;;;19.65;69.98;97429.34;4195846;28;5782;-65
2022/10/12 06:54:30;;;;;;;;;;;;;;;19.65;69.65;97437.41;4199180;28;5733;-65
2022/10/12 06:56:33;;;;;;;;;;;;;;;19.63;69.86;97434.16;4195728;28;5738;-67
2022/10/12 06:58:37;;;;;;;;;;;;;;;19.64;69.51;97433.09;4199124;28;5825;-65
2022/10/12 07:00:39;;;;;;;;;;;;;;;19.66;69.54;97440.91;4199364;28;5380;-66
2022/10/12 07:02:42;;;;;;;;;;;;;;;19.65;69.73;97437.41;4196589;28;5926;-65
2022/10/12 07:04:50;;;;;;;;;;;;;;;19.65;69.56;97442.75;4197576;28;5733;-66
2022/10/12 07:06:53;;;;;;;;;;;;;;;19.64;69.40;97441.13;4196497;28;5841;-66
2022/10/12 07:08:56;;;;;;;;;;;;;;;19.65;69.16;97447.31;4200418;28;5734;-64
2022/10/12 07:11:00;;;;;;;;;;;;;;;19.66;69.35;97443.56;4200948;28;5914;-65
2022/10/12 07:13:03;;;;;;;;;;;;;;;19.65;69.19;97440.09;4193428;28;5767;-66
2022/10/12 07:15:07;;;;;;;;;;;;;;;19.67;69.21;97445.22;4193198;28;5874;-66
2022/10/12 07:17:10;;;;;;;;;;;;;;;19.68;69.02;97455.69;4189300;28;5779;-70
2022/10/12 07:19:13;;;;;;;;;;;;;;;19.68;69.02;97447.66;4191903;28;5811;-71
2022/10/12 07:21:17;;;;;;;;;;;;;;;19.70;68.74;97444.72;4201004;28;5723;-72
2022/10/12 07:23:21;;;;;;;;;;;;;;;19.71;68.68;97447.19;4194926;28;5738;-74
2022/10/12 07:25:25;;;;;;;;;;;;;;;19.71;68.57;97441.84;4198691;28;5813;-74
2022/10/12 07:27:28;;;;;;;;;;;;;;;19.73;68.85;97449.66;4201124;28;5764;-74
2022/10/12 07:29:34;;;;;;;;;;;;;;;19.74;68.40;97457.44;4177926;28;5646;-74
2022/10/12 07:31:37;;;;;;;;;;;;;;;19.75;68.75;97453.72;4200771;28;5921;-67
2022/10/12 07:33:40;;;;;;;;;;;;;;;19.77;68.43;97453.47;4199575;28;5880;-75
2022/10/12 07:35:43;;;;;;;;;;;;;;;19.77;68.46;97451.59;4196072;28;5722;-75
2022/10/12 07:38:08;;;;;;;;;;;;;;;19.78;68.09;97458.59;4197564;28;6464;-75
2022/10/12 07:40:11;;;;;;;;;;;;;;;19.80;68.15;97449.50;4197938;28;5842;-74
2022/10/12 07:42:13;;;;;;;;;;;;;;;19.80;68.49;97457.56;4197056;28;5754;-81
2022/10/12 07:44:23;;;;;;;;;;;;;;;19.80;68.19;97454.88;4194792;28;5940;-71
2022/10/12 07:46:30;;;;;;;;;;;;;;;19.80;67.88;97452.19;4181257;28;5812;-76
2022/10/12 07:48:34;;;;;;;;;;;;;;;19.81;68.32;97453.81;4200930;28;6545;-81
2022/10/12 07:50:37;;;;;;;;;;;;;;;19.84;68.19;97461.41;4202653;28;5745;-73
2022/10/12 07:52:40;;;;;;;;;;;;;;;19.85;67.73;97452.31;4194032;28;5738;-73
2022/10/12 07:54:45;;;;;;;;;;;;;;;19.86;67.96;97462.00;4197572;28;5735;-74
2022/10/12 07:56:49;;;;;;;;;;;;;;;19.88;67.85;97457.19;4197035;28;5817;-72
2022/10/12 07:58:53;;;;;;;;;;;;;;;19.91;67.84;97465.59;4200398;28;5737;-73
2022/10/12 08:00:57;;;;;;;;;;;;;;;19.92;67.89;97466.41;4200365;28;5838;-71
2022/10/12 08:03:03;;;;;;;;;;;;;;;19.93;67.38;97463.50;4195629;28;5742;-71
2022/10/12 08:05:07;;;;;;;;;;;;;;;19.94;67.53;97467.81;4194249;28;5730;-72
2022/10/12 08:07:11;;;;;;;;;;;;;;;19.96;67.24;97462.22;4194973;28;5730;-70
2022/10/12 08:09:14;;;;;;;;;;;;;;;19.97;67.30;97466.53;4197304;28;5825;-69
2022/10/12 08:11:19;;;;;;;;;;;;;;;19.95;67.48;97458.72;4199820;28;5762;-70
2022/10/12 08:13:22;;;;;;;;;;;;;;;19.98;67.44;97468.16;4199035;28;5828;-70
2022/10/12 08:15:26;;;;;;;;;;;;;;;19.97;66.95;97461.97;4197210;28;5996;-69
2022/10/12 08:17:45;;;;;;;;;;;;;;;19.98;66.84;97462.78;4195065;28;5765;-71
2022/10/12 08:19:51;;;;;;;;;;;;;;;19.98;66.75;97457.41;4195999;28;5113;-79
2022/10/12 08:21:55;;;;;;;;;;;;;;;19.97;66.76;97459.28;4200635;28;5753;-84
2022/10/12 08:23:59;;;;;;;;;;;;;;;19.98;66.76;97462.78;4200815;28;5832;-72
2022/10/12 08:26:02;;;;;;;;;;;;;;;19.96;66.59;97459.53;4199994;28;5928;-76
2022/10/12 08:28:07;;;;;;;;;;;;;;;19.94;66.54;97456.25;4199328;28;5814;-75
2022/10/12 08:30:12;;;;;;;;;;;;;;;19.95;66.93;97464.06;4200538;28;5741;-79
2022/10/12 08:32:15;;;;;;;;;;;;;;;19.97;66.51;97458.47;4200143;28;5860;-78
2022/10/12 08:34:18;;;;;;;;;;;;;;;20.00;66.79;97466.84;4199835;28;5746;-80
2022/10/12 08:36:21;;;;;;;;;;;;;;;20.01;66.53;97463.13;4197020;28;5728;-77
2022/10/12 08:38:25;;;;;;;;;;;;;;;20.01;66.52;97460.44;4200027;28;5934;-78
2022/10/12 08:40:31;;;;;;;;;;;;;;;20.04;66.31;97459.13;4199752;28;5754;-74
2022/10/12 08:42:45;;;;;;;;;;;;;;;20.04;66.02;97462.63;4194191;28;5857;-84
2022/10/12 08:45:05;;;;;;;;;;;;;;;20.07;66.37;97466.72;4197106;28;5758;-75
2022/10/12 08:47:15;;;;;;;;;;;;;;;20.07;66.32;97466.72;4185992;28;6124;-75
2022/10/12 08:49:23;;;;;;;;;;;;;;;20.06;66.15;97457.88;4194462;28;5965;-76
2022/10/12 08:51:29;;;;;;;;;;;;;;;20.09;65.94;97464.63;4199348;28;5751;-75
2022/10/12 08:53:40;;;;;;;;;;;;;;;20.10;65.80;97463.56;4196414;28;5754;-75
2022/10/12 08:55:45;;;;;;;;;;;;;;;20.11;65.71;97465.19;4191092;28;5777;-80
2022/10/12 08:57:48;;;;;;;;;;;;;;;20.12;65.83;97461.47;4195640;28;5878;-88
2022/10/12 08:59:52;;;;;;;;;;;;;;;20.15;65.84;97465.53;4195497;28;5742;-71
2022/10/12 09:02:13;;;;;;;;;;;;;;;20.16;65.79;97464.47;4196817;28;5837;-82
2022/10/12 09:04:45;;;;;;;;;;;;;;;20.18;65.41;97459.69;4193139;28;5988;-81
2022/10/12 09:06:55;;;;;;;;;;;;;;;20.21;65.65;97472.66;4199765;28;7756;-76
2022/10/12 09:09:10;;;;;;;;;;;;;;;20.23;65.63;97467.84;4199994;28;5742;-76
2022/10/12 09:11:28;;;;;;;;;;;;;;;20.25;65.22;97466.56;4194495;28;5770;-83
2022/10/12 09:13:41;;;;;;;;;;;;;;;20.26;65.45;97464.69;4196615;28;5762;-80
2022/10/12 09:15:52;;;;;;;;;;;;;;;20.30;65.35;97468.53;4193101;28;5754;-76
2022/10/12 09:17:58;;;;;;;;;;;;;;;20.33;65.29;97460.00;4198240;28;5837;-87
2022/10/12 09:20:06;;;;;;;;;;;;;;;20.36;65.09;97463.00;4197966;28;7202;-76
2022/10/12 09:22:19;;;;;;;;;;;;;;;20.36;64.88;97463.00;4188417;28;5869;-79
2022/10/12 09:24:26;;;;;;;;;;;;;;;20.38;64.84;97470.00;4197161;28;5854;-78
2022/10/12 09:26:35;;;;;;;;;;;;;;;20.42;65.09;97473.88;4193536;28;5765;-76
2022/10/12 09:28:42;;;;;;;;;;;;;;;20.46;64.66;97464.28;4192239;28;5806;-68
2022/10/12 09:31:00;;;;;;;;;;;;;;;20.50;64.74;97468.13;4190620;28;5763;-76
2022/10/12 09:33:16;;;;;;;;;;;;;;;20.50;64.81;97471.66;4194932;28;5888;-79
2022/10/12 09:35:18;;;;;;;;;;;;;;;20.51;64.62;97473.28;4192136;28;5763;-75
2022/10/12 09:37:23;;;;;;;;;;;;;;;20.51;64.76;97465.22;4179939;28;5872;-68
2022/10/12 09:39:30;;;;;;;;;;;;;;;20.52;64.34;97469.53;4198251;28;5766;-70
2022/10/12 09:41:37;;;;;;;;;;;;;;;20.51;64.12;97464.41;4194003;28;5730;-72
2022/10/12 09:43:40;;;;;;;;;;;;;;;20.50;64.43;97465.44;4198357;28;5738;-72
2022/10/12 09:45:44;;;;;;;;;;;;;;;20.48;64.43;97467.56;4198346;28;5765;-74
2022/10/12 09:48:19;;;;;;;;;;;;;;;20.47;64.01;97460.56;4195848;28;5733;-72
2022/10/12 09:50:40;;;;;;;;;;;;;;;20.47;64.11;97463.25;4180333;28;5831;-69
2022/10/12 09:52:44;;;;;;;;;;;;;;;20.48;64.17;97456.81;4191185;28;5935;-70
2022/10/12 09:54:51;;;;;;;;;;;;;;;20.49;64.33;97458.44;4198596;28;5741;-78
2022/10/12 09:56:54;;;;;;;;;;;;;;;20.49;63.83;97458.44;4196822;28;6564;-71
2022/10/12 09:59:01;;;;;;;;;;;;;;;20.48;64.08;97452.25;4198717;28;5832;-72
2022/10/12 10:01:17;;;;;;;;;;;;;;;20.49;64.06;97448.50;4192220;28;5887;-76
2022/10/12 10:03:24;;;;;;;;;;;;;;;20.52;63.92;97463.34;4195005;28;5852;-72
2022/10/12 10:05:35;;;;;;;;;;;;;;;20.54;63.66;97462.06;4203098;28;5764;-75
2022/10/12 10:07:37;;;;;;;;;;;;;;;20.56;63.78;97459.94;4201581;28;5897;-66
2022/10/12 10:09:40;;;;;;;;;;;;;;;20.57;63.82;97471.50;4199362;28;5916;-71
2022/10/12 10:11:43;;;;;;;;;;;;;;;20.56;63.68;97456.44;4193985;28;5737;-72
2022/10/12 10:13:52;;;;;;;;;;;;;;;20.55;63.70;97462.88;4199927;28;5745;-70
2022/10/12 10:16:03;;;;;;;;;;;;;;;20.55;63.46;97454.81;4201275;28;5746;-73
2022/10/12 10:18:19;;;;;;;;;;;;;;;20.54;63.34;97456.69;4190646;28;5761;-72
2022/10/12 10:20:29;;;;;;;;;;;;;;;20.56;63.67;97459.13;4195474;28;5891;-68
2022/10/12 10:22:33;;;;;;;;;;;;;;;20.58;63.40;97457.00;4200920;28;5747;-71
2022/10/12 10:24:36;;;;;;;;;;;;;;;20.58;63.42;97454.31;4196762;28;5747;-69
2022/10/12 10:26:53;;;;;;;;;;;;;;;20.60;62.93;97460.25;4198078;28;5746;-70
2022/10/12 10:29:15;;;;;;;;;;;;;;;20.58;63.02;97455.13;4197351;28;5882;-69
2022/10/12 10:31:28;;;;;;;;;;;;;;;20.58;63.02;97454.31;4196616;28;5746;-70
2022/10/12 10:33:33;;;;;;;;;;;;;;;20.59;63.04;97454.06;4192792;28;5726;-66
2022/10/12 10:35:38;;;;;;;;;;;;;;;20.63;62.80;97459.81;4191877;28;7767;-70
2022/10/12 10:37:45;;;;;;;;;;;;;;;20.63;62.99;97460.63;4180005;28;5650;-72
2022/10/12 10:39:52;;;;;;;;;;;;;;;20.66;62.89;97462.00;4201414;28;5097;-72
2022/10/12 10:41:55;;;;;;;;;;;;;;;20.69;62.56;97463.38;4191333;28;5886;-72
2022/10/12 10:43:58;;;;;;;;;;;;;;;20.67;62.77;97460.94;4200099;28;5914;-72
2022/10/12 10:46:02;;;;;;;;;;;;;;;20.68;62.78;97459.88;4199909;28;5904;-72
2022/10/12 10:48:09;;;;;;;;;;;;;;;20.68;62.67;97457.19;4202193;28;6542;-71
2022/10/12 10:50:25;;;;;;;;;;;;;;;20.70;62.80;97468.50;4200098;28;5733;-72
2022/10/12 10:52:33;;;;;;;;;;;;;;;20.70;62.58;97465.81;4200212;28;5745;-72
2022/10/12 10:54:37;;;;;;;;;;;;;;;20.72;62.32;97463.69;4200432;28;5719;-72
2022/10/12 10:56:40;;;;;;;;;;;;;;;20.73;62.25;97468.03;4189528;28;5944;-72
2022/10/12 10:58:45;;;;;;;;;;;;;;;20.79;62.13;97464.38;4202120;28;5777;-71
2022/10/12 11:00:49;;;;;;;;;;;;;;;20.86;62.31;97462.38;4198101;28;6024;-70
2022/10/12 11:02:55;;;;;;;;;;;;;;;20.90;62.24;97463.50;4192833;28;5837;-71
2022/10/12 11:05:05;;;;;;;;;;;;;;;20.94;62.30;97461.13;4198797;28;6001;-72
2022/10/12 11:07:20;;;;;;;;;;;;;;;20.99;62.24;97449.66;4197285;28;6286;-71
2022/10/12 11:09:29;;;;;;;;;;;;;;;21.02;61.78;97452.69;4204263;28;5726;-72
2022/10/12 11:11:36;;;;;;;;;;;;;;;21.07;61.92;97449.28;4196565;28;5834;-72
2022/10/12 11:13:44;;;;;;;;;;;;;;;21.11;61.66;97455.78;4196959;28;5726;-73
2022/10/12 11:15:50;;;;;;;;;;;;;;;21.13;62.00;97448.28;4197487;28;5730;-72
2022/10/12 11:18:02;;;;;;;;;;;;;;;21.15;61.56;97448.84;4205694;28;5436;-71
2022/10/12 11:20:28;;;;;;;;;;;;;;;21.14;61.97;97456.09;4199797;28;5889;-72
2022/10/12 11:22:39;;;;;;;;;;;;;;;21.14;61.56;97455.28;4198916;28;5097;-71
2022/10/12 11:24:47;;;;;;;;;;;;;;;21.13;61.74;97459.03;4197477;28;5776;-71
2022/10/12 11:26:56;;;;;;;;;;;;;;;21.10;61.43;97454.97;4200116;28;5801;-72
2022/10/12 11:29:00;;;;;;;;;;;;;;;21.12;61.38;97446.66;4200528;28;6431;-73
2022/10/12 11:31:06;;;;;;;;;;;;;;;21.11;61.36;97463.84;4199100;28;5734;-72
2022/10/12 11:33:13;;;;;;;;;;;;;;;21.06;61.36;97437.69;4197175;28;5812;-70
2022/10/12 11:35:26;;;;;;;;;;;;;;;21.05;61.49;97440.63;4200762;28;5811;-71
2022/10/12 11:37:36;;;;;;;;;;;;;;;21.04;61.53;97444.38;4196147;28;5758;-70
2022/10/12 11:39:46;;;;;;;;;;;;;;;21.03;61.52;97442.72;4197308;28;6399;-71
2022/10/12 11:41:52;;;;;;;;;;;;;;;21.00;61.22;97444.03;4197907;28;5842;-71
2022/10/12 11:44:19;;;;;;;;;;;;;;;20.99;61.23;97439.72;4172954;28;5812;-72
2022/10/12 11:46:32;;;;;;;;;;;;;;;20.97;61.09;97435.66;4192989;28;5755;-72
2022/10/12 11:48:44;;;;;;;;;;;;;;;20.94;61.41;97437.75;4194747;28;5817;-72
2022/10/12 11:50:50;;;;;;;;;;;;;;;20.90;61.06;97433.94;4194208;28;5722;-71
2022/10/12 11:52:56;;;;;;;;;;;;;;;20.88;61.44;97425.31;4194520;28;5787;-72
2022/10/12 11:55:26;;;;;;;;;;;;;;;20.87;61.34;97426.38;4192144;28;5722;-72
2022/10/12 11:57:33;;;;;;;;;;;;;;;20.85;61.03;97431.19;4201226;28;5726;-72
2022/10/12 11:59:41;;;;;;;;;;;;;;;20.82;61.30;97418.19;4198061;28;5840;-71
2022/10/12 12:01:58;;;;;;;;;;;;;;;20.85;61.33;97423.13;4194358;28;5805;-71
2022/10/12 12:04:13;;;;;;;;;;;;;;;20.87;61.04;97429.06;4191095;28;5765;-72
2022/10/12 12:06:48;;;;;;;;;;;;;;;20.89;60.93;97421.56;4194046;28;5989;-71
2022/10/12 12:08:58;;;;;;;;;;;;;;;20.89;60.89;97416.19;4190347;28;5730;-71
2022/10/12 12:11:20;;;;;;;;;;;;;;;20.90;61.00;97417.00;4193925;28;5852;-71
2022/10/12 12:13:25;;;;;;;;;;;;;;;20.90;60.95;97422.38;4195737;28;5758;-71
2022/10/12 12:15:29;;;;;;;;;;;;;;;20.89;60.96;97423.44;4178404;28;5819;-72
2022/10/12 12:17:32;;;;;;;;;;;;;;;20.88;60.86;97419.94;4197580;28;5926;-71
2022/10/12 12:19:37;;;;;;;;;;;;;;;20.89;61.01;97424.25;4196177;28;5714;-71
2022/10/12 12:22:16;;;;;;;;;;;;;;;20.89;60.55;97418.88;4195882;28;5730;-71
2022/10/12 12:24:19;;;;;;;;;;;;;;;20.88;60.87;97413.75;4189389;28;6574;-70
2022/10/12 12:26:26;;;;;;;;;;;;;;;20.87;60.40;97412.94;4194916;28;5742;-70
2022/10/12 12:28:29;;;;;;;;;;;;;;;20.89;60.65;97408.13;4199538;28;5761;-71
2022/10/12 12:30:38;;;;;;;;;;;;;;;20.89;60.62;97410.00;4200273;28;5741;-70
2022/10/12 12:32:46;;;;;;;;;;;;;;;20.90;60.29;97406.25;4196042;28;5733;-71
2022/10/12 12:34:54;;;;;;;;;;;;;;;20.89;60.45;97410.00;4179184;28;5752;-71
2022/10/12 12:37:11;;;;;;;;;;;;;;;20.90;60.15;97408.94;4191636;28;6162;-71
2022/10/12 12:39:22;;;;;;;;;;;;;;;20.89;60.62;97400.06;4192662;28;5921;-71
2022/10/12 12:41:45;;;;;;;;;;;;;;;20.88;60.29;97398.44;4193456;28;5864;-70
2022/10/12 12:43:59;;;;;;;;;;;;;;;20.89;60.39;97400.06;4199165;28;6103;-70
2022/10/12 12:46:10;;;;;;;;;;;;;;;20.88;60.19;97403.00;4195057;28;7742;-70
2022/10/12 12:48:13;;;;;;;;;;;;;;;20.88;60.52;97403.81;4191827;28;5801;-71
2022/10/12 12:50:34;;;;;;;;;;;;;;;20.89;60.22;97405.44;4193180;28;5722;-70
2022/10/12 12:52:39;;;;;;;;;;;;;;;20.88;60.29;97397.63;4195567;28;5829;-71
2022/10/12 12:54:57;;;;;;;;;;;;;;;20.85;59.85;97393.56;4193727;28;6419;-70
2022/10/12 12:57:29;;;;;;;;;;;;;;;20.83;60.29;97395.66;4196302;28;5785;-71
2022/10/12 12:59:59;;;;;;;;;;;;;;;20.85;59.91;97390.88;4186273;28;5815;-73
2022/10/12 13:02:29;;;;;;;;;;;;;;;20.84;59.80;97380.38;4195681;28;5969;-73
2022/10/12 13:04:55;;;;;;;;;;;;;;;20.84;60.03;97389.25;4197566;28;5820;-73
2022/10/12 13:07:31;;;;;;;;;;;;;;;20.85;59.77;97390.06;4194919;28;5829;-69
2022/10/12 13:09:58;;;;;;;;;;;;;;;20.82;59.94;97387.84;4192499;28;5815;-68
2022/10/12 13:12:21;;;;;;;;;;;;;;;20.83;59.52;97379.53;4196576;28;5919;-69
2022/10/12 13:15:02;;;;;;;;;;;;;;;20.84;59.51;97377.69;4194167;28;5956;-69
2022/10/12 13:17:19;;;;;;;;;;;;;;;20.82;59.56;97385.16;4197174;28;5789;-68
2022/10/12 13:19:37;;;;;;;;;;;;;;;20.84;59.47;97386.56;4195646;28;6004;-67
2022/10/12 13:21:41;;;;;;;;;;;;;;;20.85;59.76;97384.69;4199518;28;5758;-68
2022/10/12 13:23:47;;;;;;;;;;;;;;;20.86;59.85;97378.25;4195305;28;5791;-68
2022/10/12 13:25:53;;;;;;;;;;;;;;;20.86;59.60;97379.06;4175984;28;5646;-73
2022/10/12 13:28:03;;;;;;;;;;;;;;;20.88;59.72;97384.19;4198224;28;5782;-72
2022/10/12 13:30:15;;;;;;;;;;;;;;;20.86;59.59;97379.06;4195826;28;5117;-73
2022/10/12 13:32:26;;;;;;;;;;;;;;;20.87;59.37;97371.81;4199582;28;5718;-73
2022/10/12 13:34:35;;;;;;;;;;;;;;;20.88;59.33;97371.56;4199913;28;5976;-74
2022/10/12 13:36:50;;;;;;;;;;;;;;;20.86;59.51;97364.81;4201824;28;6537;-73
2022/10/12 13:38:56;;;;;;;;;;;;;;;20.86;59.45;97360.25;4203199;28;5745;-74
2022/10/12 13:41:05;;;;;;;;;;;;;;;20.87;59.67;97359.19;4203152;28;5730;-74
2022/10/12 13:43:20;;;;;;;;;;;;;;;20.87;59.34;97359.19;4195391;28;5738;-74
2022/10/12 13:45:24;;;;;;;;;;;;;;;20.87;59.63;97353.81;4202818;28;5741;-74
2022/10/12 13:47:29;;;;;;;;;;;;;;;20.87;59.21;97353.81;4202630;28;5749;-73
2022/10/12 13:49:35;;;;;;;;;;;;;;;20.88;59.50;97360.00;4203203;28;5829;-73
2022/10/12 13:51:37;;;;;;;;;;;;;;;20.87;59.18;97359.19;4198007;28;5869;-73
2022/10/12 13:53:41;;;;;;;;;;;;;;;20.88;59.50;97360.81;4200565;28;5801;-73
2022/10/12 13:55:54;;;;;;;;;;;;;;;20.90;59.49;97357.88;4201761;28;5911;-73
2022/10/12 13:57:58;;;;;;;;;;;;;;;20.90;59.45;97358.69;4202645;28;5817;-73
2022/10/12 14:00:09;;;;;;;;;;;;;;;20.90;59.23;97353.31;4203099;28;5741;-74
2022/10/12 14:02:22;;;;;;;;;;;;;;;20.88;59.51;97350.06;4195045;28;5733;-73
2022/10/12 14:04:28;;;;;;;;;;;;;;;20.86;59.55;97346.81;4202930;28;5784;-73
2022/10/12 14:06:33;;;;;;;;;;;;;;;20.86;59.19;97351.38;4202912;28;5737;-74
2022/10/12 14:08:36;;;;;;;;;;;;;;;20.86;58.99;97357.56;4184894;28;5697;-72
2022/10/12 14:10:40;;;;;;;;;;;;;;;20.85;59.00;97355.94;4199071;28;5741;-73
2022/10/12 14:12:49;;;;;;;;;;;;;;;20.84;59.32;97357.00;4199544;28;5812;-73
2022/10/12 14:14:53;;;;;;;;;;;;;;;20.85;59.34;97358.63;4201772;28;5823;-73
2022/10/12 14:16:55;;;;;;;;;;;;;;;20.86;58.79;97359.44;4202451;28;5737;-73
2022/10/12 14:19:18;;;;;;;;;;;;;;;20.86;58.78;97352.19;4198323;28;5139;-73
2022/10/12 14:21:25;;;;;;;;;;;;;;;20.89;59.16;97362.44;4194996;28;5753;-73
2022/10/12 14:23:30;;;;;;;;;;;;;;;20.90;58.70;97357.88;4194576;28;5813;-72
2022/10/12 14:25:33;;;;;;;;;;;;;;;20.90;59.00;97356.00;4198328;28;5758;-74
2022/10/12 14:27:38;;;;;;;;;;;;;;;20.89;58.76;97357.06;4191360;28;5275;-68
2022/10/12 14:29:43;;;;;;;;;;;;;;;20.91;58.82;97351.44;4197915;28;8542;-70
2022/10/12 14:31:52;;;;;;;;;;;;;;;20.89;58.83;97354.38;4194190;28;7717;-70
2022/10/12 14:33:55;;;;;;;;;;;;;;;20.90;59.04;97353.31;4199241;28;5745;-71
2022/10/12 14:36:15;;;;;;;;;;;;;;;20.91;58.50;97344.19;4195554;28;5994;-75
2022/10/12 14:38:39;;;;;;;;;;;;;;;20.93;58.72;97347.44;4194629;28;5746;-69
2022/10/12 14:40:42;;;;;;;;;;;;;;;20.94;58.82;97346.38;4196837;28;5809;-74
2022/10/12 14:42:54;;;;;;;;;;;;;;;20.92;58.94;97345.81;4196319;28;5884;-73
2022/10/12 14:44:57;;;;;;;;;;;;;;;20.93;58.37;97342.06;4197283;28;5834;-71
2022/10/12 14:47:04;;;;;;;;;;;;;;;20.93;58.45;97343.94;4197085;28;5765;-75
2022/10/12 14:49:16;;;;;;;;;;;;;;;20.96;58.75;97353.41;4193001;28;5871;-68
2022/10/12 14:51:20;;;;;;;;;;;;;;;20.95;58.42;97347.19;4190308;28;5758;-81
2022/10/12 14:53:28;;;;;;;;;;;;;;;20.93;58.56;97344.75;4173534;28;5753;-69
2022/10/12 14:55:33;;;;;;;;;;;;;;;20.93;58.33;97352.00;4192749;28;5728;-69
2022/10/12 14:57:35;;;;;;;;;;;;;;;20.92;58.50;97343.13;4191374;28;6092;-69
2022/10/12 14:59:38;;;;;;;;;;;;;;;20.92;58.34;97345.00;4200802;28;5810;-73
2022/10/12 15:01:42;;;;;;;;;;;;;;;20.90;58.34;97347.94;4194689;28;5725;-73
2022/10/12 15:03:52;;;;;;;;;;;;;;;20.91;58.51;97341.50;4190452;28;6077;-72
2022/10/12 15:05:55;;;;;;;;;;;;;;;20.90;58.35;97339.06;4190649;28;5836;-69
2022/10/12 15:08:05;;;;;;;;;;;;;;;20.90;58.50;97344.44;4194482;28;5873;-69
2022/10/12 15:10:09;;;;;;;;;;;;;;;20.90;58.34;97341.75;4199059;28;5829;-69
2022/10/12 15:12:14;;;;;;;;;;;;;;;20.88;58.04;97333.94;4194039;28;5734;-69
2022/10/12 15:14:16;;;;;;;;;;;;;;;20.90;58.40;97331.81;4200803;28;5922;-69
2022/10/12 15:16:21;;;;;;;;;;;;;;;20.89;58.03;97324.00;4201149;28;5746;-69
2022/10/12 15:18:24;;;;;;;;;;;;;;;20.90;57.95;97331.81;4201358;28;6626;-69
2022/10/12 15:20:29;;;;;;;;;;;;;;;20.90;58.42;97336.38;4200985;28;5884;-69
2022/10/12 15:22:32;;;;;;;;;;;;;;;20.89;58.43;97334.75;4200223;28;5848;-69
2022/10/12 15:24:36;;;;;;;;;;;;;;;20.87;58.38;97328.81;4196876;28;5869;-68
2022/10/12 15:26:39;;;;;;;;;;;;;;;20.85;58.37;97334.44;4194299;28;5109;-68
2022/10/12 15:28:44;;;;;;;;;;;;;;;20.85;58.41;97334.44;4197696;28;5738;-68
2022/10/12 15:30:47;;;;;;;;;;;;;;;20.86;58.52;97330.69;4194673;28;5864;-68
2022/10/12 15:33:11;;;;;;;;;;;;;;;20.85;58.13;97334.44;4190948;28;5945;-68
2022/10/12 15:35:20;;;;;;;;;;;;;;;20.85;58.44;97334.44;4193283;28;5806;-67
2022/10/12 15:37:29;;;;;;;;;;;;;;;20.84;58.34;97338.19;4192904;28;5882;-73
2022/10/12 15:39:32;;;;;;;;;;;;;;;20.81;58.37;97327.09;4195257;28;5880;-74
2022/10/12 15:41:36;;;;;;;;;;;;;;;20.80;57.99;97333.53;4191026;28;5963;-71
2022/10/12 15:43:39;;;;;;;;;;;;;;;20.80;58.12;97330.84;4194826;28;5864;-70
2022/10/12 15:45:44;;;;;;;;;;;;;;;20.79;58.33;97335.41;4198673;28;5726;-70
2022/10/12 15:47:48;;;;;;;;;;;;;;;20.77;58.21;97329.47;4195700;28;5821;-70
2022/10/12 15:49:50;;;;;;;;;;;;;;;20.77;58.05;97325.97;4187925;28;5852;-70
2022/10/12 15:51:54;;;;;;;;;;;;;;;20.77;58.01;97332.16;4192921;28;5848;-70
2022/10/12 15:53:57;;;;;;;;;;;;;;;20.77;58.17;97329.47;4193714;28;5763;-70
2022/10/12 15:56:00;;;;;;;;;;;;;;;20.76;58.10;97319.78;4192781;28;5770;-68
2022/10/12 15:58:04;;;;;;;;;;;;;;;20.76;57.90;97327.84;4194530;28;5804;-69
2022/10/12 16:00:08;;;;;;;;;;;;;;;20.75;58.19;97334.28;4193635;28;5880;-70
2022/10/12 16:02:12;;;;;;;;;;;;;;;20.73;57.86;97325.66;4195819;28;5953;-69
2022/10/12 16:04:15;;;;;;;;;;;;;;;20.72;57.81;97326.69;4193078;28;5892;-68
2022/10/12 16:06:18;;;;;;;;;;;;;;;20.71;57.72;97338.50;4198465;28;5845;-68
2022/10/12 16:08:21;;;;;;;;;;;;;;;20.67;57.64;97326.63;4193546;28;5743;-68
2022/10/12 16:10:26;;;;;;;;;;;;;;;20.68;57.75;97325.56;4192314;28;5921;-69
2022/10/12 16:12:29;;;;;;;;;;;;;;;20.68;58.02;97328.25;4191668;28;5963;-68
2022/10/12 16:14:33;;;;;;;;;;;;;;;20.67;57.99;97326.63;4190637;28;5831;-69
2022/10/12 16:16:36;;;;;;;;;;;;;;;20.66;58.08;97334.91;4195166;28;5837;-69
2022/10/12 16:18:39;;;;;;;;;;;;;;;20.64;58.00;97327.91;4197836;28;5757;-69
2022/10/12 16:20:43;;;;;;;;;;;;;;;20.64;58.02;97335.16;4198263;28;5910;-69
2022/10/12 16:22:52;;;;;;;;;;;;;;;20.62;57.97;97335.41;4193370;28;5756;-69
2022/10/12 16:24:55;;;;;;;;;;;;;;;20.62;57.91;97327.34;4190930;28;5925;-69
2022/10/12 16:26:58;;;;;;;;;;;;;;;20.61;57.98;97327.56;4195627;28;5809;-69
2022/10/12 16:29:04;;;;;;;;;;;;;;;20.59;57.88;97330.50;4187485;28;5858;-69
2022/10/12 16:31:14;;;;;;;;;;;;;;;20.58;57.75;97317.31;4190704;28;6503;-68
2022/10/12 16:33:18;;;;;;;;;;;;;;;20.57;58.08;97318.38;4191426;28;5722;-68
2022/10/12 16:35:21;;;;;;;;;;;;;;;20.56;57.83;97324.81;4196441;28;5902;-69
2022/10/12 16:37:24;;;;;;;;;;;;;;;20.55;58.09;97323.19;4194449;28;5865;-70
2022/10/12 16:39:29;;;;;;;;;;;;;;;20.54;57.90;97332.31;4198612;28;5790;-70